createdAt,value
2023-05-12T00:02:16.335Z,100.00
2023-05-12T00:06:18.379Z,100.00
2023-05-12T00:10:21.004Z,100.00
2023-05-12T00:14:23.346Z,100.00
2023-05-12T00:18:26.094Z,100.00
2023-05-12T00:22:28.101Z,100.00
2023-05-12T00:26:30.120Z,100.00
2023-05-12T00:30:32.146Z,100.00
2023-05-12T00:34:34.248Z,100.00
2023-05-12T00:38:37.335Z,100.00
2023-05-12T00:42:39.390Z,100.00
2023-05-12T00:46:41.754Z,100.00
2023-05-12T00:50:44.208Z,100.00
2023-05-12T00:54:47.265Z,100.00
2023-05-12T00:58:49.367Z,100.00
2023-05-12T01:02:52.600Z,100.00
2023-05-12T01:07:12.604Z,100.00
2023-05-12T01:11:14.927Z,100.00
2023-05-12T01:15:18.371Z,100.00
2023-05-12T01:19:38.431Z,100.00
2023-05-12T01:23:46.627Z,100.00
2023-05-12T01:27:49.263Z,100.00
2023-05-12T01:31:51.751Z,100.00
2023-05-12T01:35:53.926Z,100.00
2023-05-12T01:39:56.031Z,100.00
2023-05-12T01:43:58.058Z,100.00
2023-05-12T01:48:00.880Z,100.00
2023-05-12T01:52:03.448Z,100.00
2023-05-12T01:56:06.965Z,100.00
2023-05-12T02:00:10.956Z,100.00
2023-05-12T02:04:16.130Z,100.00
2023-05-12T02:08:21.503Z,100.00
2023-05-12T02:12:24.190Z,100.00
2023-05-12T02:16:26.700Z,100.00
2023-05-12T02:20:29.668Z,100.00
2023-05-12T02:24:31.648Z,100.00
2023-05-12T02:28:33.756Z,100.00
2023-05-12T02:32:35.959Z,100.00
2023-05-12T02:36:40.831Z,100.00
2023-05-12T02:40:42.995Z,100.00
2023-05-12T02:44:46.230Z,100.00
2023-05-12T02:48:48.410Z,100.00
2023-05-12T02:52:50.938Z,100.00
2023-05-12T02:56:53.300Z,100.00
2023-05-12T03:01:03.349Z,100.00
2023-05-12T03:05:11.949Z,100.00
2023-05-12T03:09:14.219Z,100.00
2023-05-12T03:13:16.288Z,100.00
2023-05-12T03:17:18.372Z,100.00
2023-05-12T03:21:20.620Z,100.00
2023-05-12T03:25:22.666Z,100.00
2023-05-12T03:29:24.903Z,100.00
2023-05-12T03:33:26.977Z,100.00
2023-05-12T03:37:29.092Z,100.00
2023-05-12T03:41:31.245Z,100.00
2023-05-12T03:45:33.372Z,100.00
2023-05-12T03:49:35.385Z,100.00
2023-05-12T03:53:37.438Z,100.00
2023-05-12T03:57:39.523Z,100.00
2023-05-12T04:01:41.694Z,100.00
2023-05-12T04:05:43.782Z,100.00
2023-05-12T04:09:46.571Z,100.00
2023-05-12T04:13:48.646Z,100.00
2023-05-12T04:17:51.071Z,100.00
2023-05-12T04:21:53.627Z,100.00
2023-05-12T04:25:56.420Z,100.00
2023-05-12T04:29:58.557Z,100.00
2023-05-12T04:34:01.144Z,100.00
2023-05-12T04:38:04.444Z,100.00
2023-05-12T04:42:07.054Z,100.00
2023-05-12T04:46:10.419Z,100.00
2023-05-12T04:50:13.624Z,100.00
2023-05-12T04:54:16.128Z,100.00
2023-05-12T04:58:18.285Z,100.00
2023-05-12T05:02:21.064Z,100.00
2023-05-12T05:06:24.034Z,100.00
2023-05-12T05:10:26.296Z,100.00
2023-05-12T05:14:28.441Z,100.00
2023-05-12T05:18:31.950Z,100.00
2023-05-12T05:22:34.069Z,100.00
2023-05-12T05:26:36.357Z,100.00
2023-05-12T05:30:38.931Z,100.00
2023-05-12T05:34:41.832Z,100.00
2023-05-12T05:38:43.962Z,100.00
2023-05-12T05:42:46.052Z,100.00
2023-05-12T05:46:48.360Z,100.00
2023-05-12T05:50:51.964Z,100.00
2023-05-12T05:54:54.614Z,100.00
2023-05-12T05:59:02.450Z,100.00
2023-05-12T06:03:05.033Z,100.00
2023-05-12T06:07:07.203Z,100.00
2023-05-12T06:11:09.219Z,100.00
2023-05-12T06:15:11.663Z,100.00
2023-05-12T06:19:13.813Z,100.00
2023-05-12T06:23:16.301Z,100.00
2023-05-12T06:27:18.528Z,100.00
2023-05-12T06:31:22.217Z,100.00
2023-05-12T06:35:24.258Z,100.00
2023-05-12T06:39:26.274Z,100.00
2023-05-12T06:43:28.287Z,100.00
2023-05-12T06:47:30.583Z,100.00
2023-05-12T06:51:33.945Z,100.00
2023-05-12T06:55:36.022Z,100.00
2023-05-12T06:59:38.088Z,100.00
2023-05-12T07:03:40.302Z,99.96
2023-05-12T07:07:42.351Z,100.00
2023-05-12T07:11:44.677Z,96.75
2023-05-12T07:15:46.787Z,95.89
2023-05-12T07:19:48.880Z,99.04
2023-05-12T07:23:50.888Z,99.62
2023-05-12T07:27:53.054Z,100.00
2023-05-12T07:31:55.322Z,100.00
2023-05-12T07:35:57.429Z,100.00
2023-05-12T07:39:59.538Z,100.00
2023-05-12T07:44:02.246Z,100.00
2023-05-12T07:48:04.475Z,100.00
2023-05-12T07:52:06.623Z,100.00
2023-05-12T07:56:08.669Z,100.00
2023-05-12T08:00:11.405Z,100.00
2023-05-12T08:04:16.530Z,100.00
2023-05-12T08:08:18.625Z,100.00
2023-05-12T08:12:20.879Z,100.00
2023-05-12T08:16:23.202Z,100.00
2023-05-12T08:20:25.237Z,99.71
2023-05-12T08:24:27.295Z,95.38
2023-05-12T08:28:29.425Z,95.13
2023-05-12T08:32:32.114Z,93.79
2023-05-12T08:36:34.185Z,92.24
2023-05-12T08:40:54.379Z,93.77
2023-05-12T08:44:59.149Z,96.07
2023-05-12T08:49:03.892Z,97.14
2023-05-12T08:53:10.482Z,99.67
2023-05-12T08:57:12.534Z,99.55
2023-05-12T09:01:16.249Z,96.54
2023-05-12T09:05:18.970Z,91.49
2023-05-12T09:09:21.668Z,96.20
2023-05-12T09:13:40.312Z,93.90
2023-05-12T09:17:42.407Z,92.34
2023-05-12T09:21:44.436Z,92.39
2023-05-12T09:25:47.119Z,92.72
2023-05-12T09:29:59.325Z,93.08
2023-05-12T09:34:07.868Z,89.84
2023-05-12T09:38:12.259Z,90.33
2023-05-12T09:42:15.762Z,91.78
2023-05-12T09:46:17.919Z,93.13
2023-05-12T09:50:20.744Z,93.49
2023-05-12T09:54:30.925Z,93.75
2023-05-12T09:58:33.985Z,91.18
2023-05-12T10:02:39.744Z,90.18
2023-05-12T10:06:43.061Z,90.58
2023-05-12T10:10:48.579Z,89.83
2023-05-12T10:14:51.719Z,92.12
2023-05-12T10:18:54.853Z,87.42
2023-05-12T10:22:59.068Z,89.27
2023-05-12T10:27:03.222Z,92.34
2023-05-12T10:31:07.709Z,94.13
2023-05-12T10:35:11.086Z,98.12
2023-05-12T10:39:15.451Z,97.89
2023-05-12T10:43:28.749Z,97.78
2023-05-12T10:47:37.707Z,95.94
2023-05-12T10:51:43.165Z,96.21
2023-05-12T10:55:50.090Z,94.24
2023-05-12T10:59:56.300Z,93.47
2023-05-12T11:04:11.175Z,93.47
2023-05-12T11:08:14.229Z,92.03
2023-05-12T11:12:16.990Z,92.46
2023-05-12T11:16:20.665Z,96.63
2023-05-12T11:20:28.077Z,91.66
2023-05-12T11:24:31.671Z,92.12
2023-05-12T11:28:40.764Z,90.51
2023-05-12T11:32:43.789Z,88.41
2023-05-12T11:36:46.526Z,84.07
2023-05-12T11:40:48.573Z,75.74
2023-05-12T11:44:50.736Z,75.20
2023-05-12T11:49:00.182Z,71.88
2023-05-12T11:53:02.213Z,71.29
2023-05-12T11:57:05.013Z,71.73
2023-05-12T12:01:11.737Z,71.79
2023-05-12T12:05:18.451Z,71.67
2023-05-12T12:09:30.845Z,70.79
2023-05-12T12:13:32.943Z,67.90
2023-05-12T12:17:35.014Z,64.40
2023-05-12T12:21:37.048Z,62.55
2023-05-12T12:25:39.082Z,65.25
2023-05-12T12:29:41.169Z,65.07
2023-05-12T12:33:43.375Z,64.23
2023-05-12T12:37:51.827Z,63.51
2023-05-12T12:41:54.130Z,65.75
2023-05-12T12:45:56.261Z,63.04
2023-05-12T12:49:58.756Z,64.33
2023-05-12T12:54:00.824Z,64.14
2023-05-12T12:58:02.815Z,62.31
2023-05-12T13:02:04.990Z,62.31
2023-05-12T13:06:07.183Z,60.33
2023-05-12T13:10:10.016Z,59.99
2023-05-12T13:14:12.083Z,61.04
2023-05-12T13:18:14.113Z,59.39
2023-05-12T13:22:16.243Z,60.56
2023-05-12T13:26:18.256Z,58.18
2023-05-12T13:30:20.633Z,55.89
2023-05-12T13:34:22.656Z,58.35
2023-05-12T13:38:24.747Z,58.45
2023-05-12T13:42:26.848Z,54.70
2023-05-12T13:46:28.972Z,55.04
2023-05-12T13:50:33.304Z,55.54
2023-05-12T13:54:35.648Z,54.47
2023-05-12T13:58:37.725Z,54.35
2023-05-12T14:02:39.865Z,53.96
2023-05-12T14:06:42.262Z,54.54
2023-05-12T14:10:44.997Z,53.35
2023-05-12T14:14:49.906Z,55.01
2023-05-12T14:18:52.071Z,54.43
2023-05-12T14:22:54.199Z,53.05
2023-05-12T14:26:56.409Z,54.11
2023-05-12T14:30:58.473Z,52.92
2023-05-12T14:35:00.888Z,53.89
2023-05-12T14:39:03.085Z,53.20
2023-05-12T14:43:05.250Z,53.17
2023-05-12T14:47:09.098Z,52.71
2023-05-12T14:51:11.258Z,51.19
2023-05-12T14:55:13.851Z,50.86
2023-05-12T14:59:15.875Z,52.04
2023-05-12T15:03:19.564Z,52.77
2023-05-12T15:07:22.502Z,52.65
2023-05-12T15:11:24.650Z,52.11
2023-05-12T15:15:26.769Z,53.36
2023-05-12T15:19:28.868Z,53.29
2023-05-12T15:23:31.025Z,53.38
2023-05-12T15:27:33.271Z,54.64
2023-05-12T15:31:35.733Z,54.32
2023-05-12T15:35:39.388Z,54.86
2023-05-12T15:39:41.522Z,53.81
2023-05-12T15:43:43.611Z,54.73
2023-05-12T15:47:45.762Z,54.13
2023-05-12T15:51:47.891Z,54.36
2023-05-12T15:55:59.086Z,55.76
2023-05-12T16:00:02.233Z,55.66
2023-05-12T16:04:14.978Z,55.62
2023-05-12T16:08:17.284Z,57.13
2023-05-12T16:12:19.252Z,58.99
2023-05-12T16:16:21.340Z,61.48
2023-05-12T16:20:23.506Z,65.13
2023-05-12T16:24:28.343Z,61.94
2023-05-12T16:28:31.948Z,63.05
2023-05-12T16:32:34.012Z,64.16
2023-05-12T16:36:36.243Z,65.59
2023-05-12T16:40:38.241Z,65.40
2023-05-12T16:44:40.284Z,67.21
2023-05-12T16:48:42.353Z,69.44
2023-05-12T16:52:44.377Z,68.95
2023-05-12T16:56:47.452Z,69.57
2023-05-12T17:00:49.649Z,70.07
2023-05-12T17:04:51.656Z,69.86
2023-05-12T17:08:53.732Z,70.57
2023-05-12T17:12:55.781Z,70.70
2023-05-12T17:16:57.878Z,70.95
2023-05-12T17:20:59.906Z,69.82
2023-05-12T17:25:01.877Z,69.34
2023-05-12T17:29:04.017Z,68.58
2023-05-12T17:33:07.598Z,68.55
2023-05-12T17:37:09.651Z,69.50
2023-05-12T17:41:11.793Z,71.10
2023-05-12T17:45:14.358Z,72.50
2023-05-12T17:49:16.486Z,74.48
2023-05-12T17:53:18.793Z,74.09
2023-05-12T17:57:20.970Z,76.75
2023-05-12T18:01:23.049Z,79.42
2023-05-12T18:05:25.131Z,80.46
2023-05-12T18:09:28.589Z,80.77
2023-05-12T18:13:30.970Z,81.71
2023-05-12T18:17:33.137Z,82.03
2023-05-12T18:21:35.791Z,82.20
2023-05-12T18:25:37.910Z,82.76
2023-05-12T18:29:39.970Z,82.87
2023-05-12T18:33:41.975Z,84.02
2023-05-12T18:37:44.282Z,84.52
2023-05-12T18:41:46.352Z,85.25
2023-05-12T18:45:48.936Z,85.46
2023-05-12T18:49:50.960Z,85.34
2023-05-12T18:53:53.154Z,84.70
2023-05-12T18:57:55.200Z,84.39
2023-05-12T19:01:57.249Z,85.32
2023-05-12T19:05:59.256Z,86.53
2023-05-12T19:10:01.230Z,87.93
2023-05-12T19:14:03.253Z,89.68
2023-05-12T19:18:05.448Z,90.52
2023-05-12T19:22:07.660Z,91.64
2023-05-12T19:26:10.927Z,92.09
2023-05-12T19:30:14.236Z,91.53
2023-05-12T19:34:16.611Z,91.79
2023-05-12T19:38:19.340Z,91.67
2023-05-12T19:42:21.504Z,91.81
2023-05-12T19:46:23.737Z,92.01
2023-05-12T19:50:26.394Z,93.62
2023-05-12T19:54:28.402Z,93.78
2023-05-12T19:58:30.527Z,93.92
2023-05-12T20:02:32.787Z,94.69
2023-05-12T20:06:35.058Z,95.95
2023-05-12T20:10:37.464Z,96.60
2023-05-12T20:14:39.543Z,97.68
2023-05-12T20:18:41.636Z,98.26
2023-05-12T20:22:44.267Z,98.25
2023-05-12T20:26:46.325Z,98.71
2023-05-12T20:30:48.355Z,100.00
2023-05-12T20:34:50.385Z,100.00
2023-05-12T20:38:52.451Z,100.00
2023-05-12T20:42:54.459Z,100.00
2023-05-12T20:46:56.537Z,100.00
2023-05-12T20:50:58.741Z,100.00
2023-05-12T20:55:00.954Z,100.00
2023-05-12T20:59:02.964Z,100.00
2023-05-12T21:03:05.980Z,100.00
2023-05-12T21:07:08.013Z,100.00
2023-05-12T21:11:17.561Z,100.00
2023-05-12T21:15:19.751Z,100.00
2023-05-12T21:19:21.795Z,100.00
2023-05-12T21:23:23.864Z,100.00
2023-05-12T21:27:25.873Z,100.00
2023-05-12T21:31:28.025Z,100.00
2023-05-12T21:35:30.153Z,100.00
2023-05-12T21:39:32.171Z,100.00
2023-05-12T21:43:34.255Z,100.00
2023-05-12T21:47:36.380Z,100.00
2023-05-12T21:51:38.415Z,100.00
2023-05-12T21:55:41.064Z,100.00
2023-05-12T21:59:43.092Z,100.00
2023-05-12T22:03:45.388Z,100.00
2023-05-12T22:07:48.173Z,100.00
2023-05-12T22:11:50.488Z,100.00
2023-05-12T22:15:53.383Z,100.00
2023-05-12T22:19:55.649Z,100.00
2023-05-12T22:23:57.849Z,100.00
2023-05-12T22:27:59.857Z,100.00
2023-05-12T22:32:01.894Z,100.00
2023-05-12T22:36:04.097Z,100.00
2023-05-12T22:40:07.091Z,100.00
2023-05-12T22:44:09.117Z,100.00
2023-05-12T22:48:11.139Z,100.00
2023-05-12T22:52:13.152Z,100.00
2023-05-12T22:56:15.215Z,100.00
2023-05-12T23:00:17.598Z,100.00
2023-05-12T23:04:19.745Z,100.00
2023-05-12T23:08:22.035Z,100.00
2023-05-12T23:12:24.050Z,100.00
2023-05-12T23:16:26.633Z,100.00
2023-05-12T23:20:28.817Z,100.00
2023-05-12T23:24:31.161Z,100.00
2023-05-12T23:28:33.240Z,100.00
2023-05-12T23:32:35.641Z,100.00
2023-05-12T23:36:37.955Z,100.00
2023-05-12T23:40:40.019Z,100.00
2023-05-12T23:44:42.089Z,100.00
2023-05-12T23:48:44.100Z,100.00
2023-05-12T23:52:46.289Z,100.00
2023-05-12T23:56:48.363Z,100.00
